createdAt,value
2022-07-26T00:01:25.807Z,0
2022-07-26T00:11:07.022Z,0
2022-07-26T00:20:38.766Z,0
2022-07-26T00:30:15.354Z,0
2022-07-26T00:39:52.207Z,0
2022-07-26T00:59:05.959Z,0
2022-07-26T01:18:19.770Z,0
2022-07-26T01:27:56.566Z,0
2022-07-26T01:37:32.995Z,0
2022-07-26T01:47:09.403Z,0
2022-07-26T02:06:23.566Z,0
2022-07-26T02:16:00.186Z,0
2022-07-26T02:25:36.933Z,0
2022-07-26T02:35:13.958Z,0
2022-07-26T02:44:51.187Z,0
2022-07-26T03:04:05.589Z,1.67
2022-07-26T03:13:42.235Z,6.67
2022-07-26T03:23:18.795Z,22.5
2022-07-26T03:32:55.687Z,50.83
2022-07-26T03:42:32.491Z,95
2022-07-26T03:52:10.081Z,161.67
2022-07-26T04:01:47.399Z,245.83
2022-07-26T04:11:26.386Z,340.83
2022-07-26T04:21:02.075Z,481.67
2022-07-26T04:30:39.826Z,574.17
2022-07-26T04:40:17.155Z,661.67
2022-07-26T04:49:54.925Z,902.5
2022-07-26T04:59:33.168Z,929.17
2022-07-26T05:09:11.006Z,979.17
2022-07-26T05:18:49.026Z,1239.17
2022-07-26T05:28:26.806Z,1295.83
2022-07-26T05:38:05.105Z,1267.5
2022-07-26T05:47:44.460Z,1273.33
2022-07-26T05:57:23.327Z,1130.83
2022-07-26T06:07:01.414Z,1155.83
2022-07-26T06:16:39.532Z,1450.83
2022-07-26T06:26:17.530Z,1510
2022-07-26T06:35:54.967Z,1298.33
2022-07-26T06:45:32.580Z,1068.33
2022-07-26T06:55:12.557Z,1028.33
2022-07-26T07:04:47.782Z,1087.5
2022-07-26T07:14:25.327Z,1084.17
2022-07-26T07:24:03.066Z,1157.5
2022-07-26T07:33:43.800Z,1371.67
2022-07-26T07:43:18.691Z,1205.83
2022-07-26T07:52:56.562Z,1204.17
2022-07-26T08:12:12.019Z,1404.17
2022-07-26T08:21:50.119Z,1585.83
2022-07-26T08:31:28.000Z,1609.17
2022-07-26T08:41:05.983Z,1825
2022-07-26T08:50:44.727Z,2937.5
2022-07-26T09:00:23.481Z,2454.17
2022-07-26T09:10:01.707Z,2190.83
2022-07-26T09:19:40.505Z,2377.5
2022-07-26T09:29:18.672Z,6028.33
2022-07-26T09:39:09.750Z,7849.17
2022-07-26T09:49:10.704Z,9243.33
2022-07-26T09:58:34.888Z,9851.67
2022-07-26T10:08:15.143Z,10259.17
2022-07-26T10:27:35.230Z,12433.33
2022-07-26T10:37:23.717Z,8710.83
2022-07-26T10:56:29.888Z,6995.83
2022-07-26T11:06:03.145Z,16108.33
2022-07-26T11:15:47.581Z,5918.33
2022-07-26T11:25:15.040Z,22711.67
2022-07-26T11:54:14.274Z,8546.67
2022-07-26T12:13:24.463Z,7728.33
2022-07-26T12:23:00.871Z,7408.33
2022-07-26T12:32:37.787Z,7659.17
2022-07-26T13:01:32.937Z,7102.5
2022-07-26T13:11:10.176Z,6700
2022-07-26T13:20:45.996Z,6137.5
2022-07-26T13:30:25.311Z,5812.5
2022-07-26T13:40:01.946Z,5728.33
2022-07-26T13:49:39.157Z,4661.67
2022-07-26T13:59:15.648Z,4568.33
2022-07-26T14:08:53.702Z,7590
2022-07-26T14:18:35.093Z,8039.17
2022-07-26T14:37:50.801Z,6351.67
2022-07-26T14:47:27.560Z,5414.17
2022-07-26T15:06:41.459Z,4975
2022-07-26T15:25:54.456Z,3159.17
2022-07-26T15:35:31.305Z,2886.67
2022-07-26T15:45:09.379Z,2433.33
2022-07-26T15:54:44.349Z,1925.83
2022-07-26T16:04:21.931Z,2648.33
2022-07-26T16:23:37.201Z,2512.5
2022-07-26T16:33:14.509Z,2661.67
2022-07-26T16:52:29.486Z,2137.5
2022-07-26T17:02:05.747Z,1894.17
2022-07-26T17:11:42.140Z,1523.33
2022-07-26T17:21:18.919Z,1105
2022-07-26T17:30:56.002Z,905.83
2022-07-26T17:40:32.727Z,593.33
2022-07-26T17:50:26.766Z,409.17
2022-07-26T17:59:45.945Z,275.83
2022-07-26T18:09:22.427Z,257.5
2022-07-26T18:18:59.428Z,254.17
2022-07-26T18:28:36.358Z,160
2022-07-26T18:38:13.559Z,100
2022-07-26T18:47:50.466Z,56.67
2022-07-26T18:57:27.640Z,26.67
2022-07-26T19:07:04.845Z,13.33
2022-07-26T19:16:42.091Z,5
2022-07-26T19:26:19.371Z,1.67
2022-07-26T19:35:55.861Z,0.83
2022-07-26T19:45:31.426Z,0
2022-07-26T19:55:07.648Z,0
2022-07-26T20:04:45.796Z,0
2022-07-26T20:14:18.888Z,0
2022-07-26T20:23:55.732Z,0
2022-07-26T20:43:09.695Z,0
2022-07-26T20:52:45.962Z,0
2022-07-26T21:02:23.217Z,0
2022-07-26T21:12:00.152Z,0
2022-07-26T21:21:37.255Z,0
2022-07-26T21:31:14.723Z,0
2022-07-26T21:40:51.784Z,0
2022-07-26T21:50:28.943Z,0
2022-07-26T22:00:06.331Z,0
2022-07-26T22:09:43.424Z,0
2022-07-26T22:28:57.430Z,0
2022-07-26T22:38:34.837Z,0
2022-07-26T22:48:12.046Z,0
2022-07-26T22:57:49.298Z,0
2022-07-26T23:07:26.547Z,0
2022-07-26T23:17:04.308Z,0
2022-07-26T23:26:41.636Z,0
2022-07-26T23:36:18.790Z,0
2022-07-26T23:45:56.256Z,0
2022-07-26T23:55:35.973Z,0
